Weather at Cincinnati Northern Kentucky International Airport

Public forecast

Using degrees Fahrenheit for public forecast. Weather courtesy of forecast.io.

Current aviation weather report (METAR) for Cincinnati Northern Kentucky International Airport

Retrieved 2021/12/05 01:52 UTC (37 minutes ago):

KCVG 050152Z 01009KT 10SM CLR 04/M04 A3026 RMK AO2 SLP249 T00441039

Aviation forecast (TAF) for Cincinnati Northern Kentucky International Airport

Retrieved 2021-12-05 00:24 UTC (2 hours ago):

TAF KCVG 042322Z 0500/0606 04008KT P6SM SCT250 FM051000 08010KT P6SM BKN250 FM051500 13012G18KT P6SM BKN040 FM051900 15012G18KT P6SM BKN025 FM052300 17012G20KT P6SM VCSH BKN015 WS020/20040KT FM060200 18014G26KT 6SM -SHRA OVC015 WS020/21045KT